sensor_id;sensor_type;location;lat;lon;timestamp;temperature;humidity
27384;DHT22;14851;51.166;4.760;2024-01-15T00:00:57;1.80;99.90
27384;DHT22;14851;51.166;4.760;2024-01-15T00:03:23;1.70;99.90
27384;DHT22;14851;51.166;4.760;2024-01-15T00:05:50;1.70;99.90
27384;DHT22;14851;51.166;4.760;2024-01-15T00:08:16;1.70;99.90
27384;DHT22;14851;51.166;4.760;2024-01-15T00:10:42;1.70;99.90
27384;DHT22;14851;51.166;4.760;2024-01-15T00:13:08;1.70;99.90
27384;DHT22;14851;51.166;4.760;2024-01-15T00:15:34;1.70;99.90
27384;DHT22;14851;51.166;4.760;2024-01-15T00:18:00;1.70;99.90
27384;DHT22;14851;51.166;4.760;2024-01-15T00:20:27;1.70;99.90
27384;DHT22;14851;51.166;4.760;2024-01-15T00:22:55;1.70;99.90
27384;DHT22;14851;51.166;4.760;2024-01-15T00:25:21;1.60;99.90
27384;DHT22;14851;51.166;4.760;2024-01-15T00:27:48;1.70;99.90
27384;DHT22;14851;51.166;4.760;2024-01-15T00:30:14;1.60;99.90
27384;DHT22;14851;51.166;4.760;2024-01-15T00:32:41;1.60;99.90
27384;DHT22;14851;51.166;4.760;2024-01-15T00:35:07;1.60;99.90
27384;DHT22;14851;51.166;4.760;2024-01-15T00:37:34;1.60;99.90
27384;DHT22;14851;51.166;4.760;2024-01-15T00:40:00;1.60;99.90
27384;DHT22;14851;51.166;4.760;2024-01-15T00:42:27;1.60;99.90
27384;DHT22;14851;51.166;4.760;2024-01-15T00:44:53;1.60;99.90
27384;DHT22;14851;51.166;4.760;2024-01-15T00:47:20;1.60;99.90
27384;DHT22;14851;51.166;4.760;2024-01-15T00:49:47;1.60;99.90
27384;DHT22;14851;51.166;4.760;2024-01-15T00:52:12;1.60;99.90
27384;DHT22;14851;51.166;4.760;2024-01-15T00:54:39;1.60;99.90
27384;DHT22;14851;51.166;4.760;2024-01-15T00:57:06;1.60;99.90
27384;DHT22;14851;51.166;4.760;2024-01-15T00:59:32;1.60;99.90
27384;DHT22;14851;51.166;4.760;2024-01-15T01:01:58;1.60;99.90
27384;DHT22;14851;51.166;4.760;2024-01-15T01:04:25;1.60;99.90
27384;DHT22;14851;51.166;4.760;2024-01-15T01:06:53;1.60;99.90
27384;DHT22;14851;51.166;4.760;2024-01-15T01:09:22;1.60;99.90
27384;DHT22;14851;51.166;4.760;2024-01-15T01:11:51;1.70;99.90
27384;DHT22;14851;51.166;4.760;2024-01-15T01:14:17;1.60;99.90
27384;DHT22;14851;51.166;4.760;2024-01-15T01:16:43;1.60;99.90
27384;DHT22;14851;51.166;4.760;2024-01-15T01:19:09;1.60;99.90
27384;DHT22;14851;51.166;4.760;2024-01-15T01:21:35;1.60;99.90
27384;DHT22;14851;51.166;4.760;2024-01-15T01:24:01;1.60;99.90
27384;DHT22;14851;51.166;4.760;2024-01-15T01:26:28;1.70;99.90
27384;DHT22;14851;51.166;4.760;2024-01-15T01:28:53;1.70;99.90
27384;DHT22;14851;51.166;4.760;2024-01-15T01:31:20;1.70;99.90
27384;DHT22;14851;51.166;4.760;2024-01-15T01:33:46;1.70;99.90
27384;DHT22;14851;51.166;4.760;2024-01-15T01:36:12;1.80;99.90
27384;DHT22;14851;51.166;4.760;2024-01-15T01:38:39;1.80;99.90
27384;DHT22;14851;51.166;4.760;2024-01-15T01:41:06;1.80;99.90
27384;DHT22;14851;51.166;4.760;2024-01-15T01:43:32;1.80;99.90
27384;DHT22;14851;51.166;4.760;2024-01-15T01:45:59;1.80;99.90
27384;DHT22;14851;51.166;4.760;2024-01-15T01:48:26;1.80;99.90
27384;DHT22;14851;51.166;4.760;2024-01-15T01:50:54;1.70;99.90
27384;DHT22;14851;51.166;4.760;2024-01-15T01:53:24;1.80;99.90
27384;DHT22;14851;51.166;4.760;2024-01-15T01:55:51;1.70;99.90
27384;DHT22;14851;51.166;4.760;2024-01-15T01:58:19;1.70;99.90
27384;DHT22;14851;51.166;4.760;2024-01-15T02:00:47;1.70;99.90
27384;DHT22;14851;51.166;4.760;2024-01-15T02:03:13;1.70;99.90
27384;DHT22;14851;51.166;4.760;2024-01-15T02:05:39;1.70;99.90
27384;DHT22;14851;51.166;4.760;2024-01-15T02:08:06;1.70;99.90
27384;DHT22;14851;51.166;4.760;2024-01-15T02:10:32;1.80;99.90
27384;DHT22;14851;51.166;4.760;2024-01-15T02:12:58;1.70;99.90
27384;DHT22;14851;51.166;4.760;2024-01-15T02:15:24;1.70;99.90
27384;DHT22;14851;51.166;4.760;2024-01-15T02:17:59;1.80;99.90
27384;DHT22;14851;51.166;4.760;2024-01-15T02:20:26;1.80;99.90
27384;DHT22;14851;51.166;4.760;2024-01-15T02:23:15;1.80;99.90
27384;DHT22;14851;51.166;4.760;2024-01-15T02:25:45;1.80;99.90
27384;DHT22;14851;51.166;4.760;2024-01-15T02:28:16;1.80;99.90
27384;DHT22;14851;51.166;4.760;2024-01-15T02:30:44;1.80;99.90
27384;DHT22;14851;51.166;4.760;2024-01-15T02:33:11;1.80;99.90
27384;DHT22;14851;51.166;4.760;2024-01-15T02:35:38;1.70;99.90
27384;DHT22;14851;51.166;4.760;2024-01-15T02:38:08;1.80;99.90
27384;DHT22;14851;51.166;4.760;2024-01-15T02:40:35;1.80;99.90
27384;DHT22;14851;51.166;4.760;2024-01-15T02:43:02;1.80;99.90
27384;DHT22;14851;51.166;4.760;2024-01-15T02:45:29;1.70;99.90
27384;DHT22;14851;51.166;4.760;2024-01-15T02:47:59;1.70;99.90
27384;DHT22;14851;51.166;4.760;2024-01-15T02:50:26;1.70;99.90
27384;DHT22;14851;51.166;4.760;2024-01-15T02:52:53;1.70;99.90
27384;DHT22;14851;51.166;4.760;2024-01-15T02:55:19;1.70;99.90
27384;DHT22;14851;51.166;4.760;2024-01-15T02:57:46;1.70;99.90
27384;DHT22;14851;51.166;4.760;2024-01-15T03:00:13;1.60;99.90
27384;DHT22;14851;51.166;4.760;2024-01-15T03:02:41;1.60;99.90
27384;DHT22;14851;51.166;4.760;2024-01-15T03:05:09;1.60;99.90
27384;DHT22;14851;51.166;4.760;2024-01-15T03:07:36;1.60;99.90
27384;DHT22;14851;51.166;4.760;2024-01-15T03:10:02;1.60;99.90
27384;DHT22;14851;51.166;4.760;2024-01-15T03:12:28;1.60;99.90
27384;DHT22;14851;51.166;4.760;2024-01-15T03:14:55;1.60;99.90
27384;DHT22;14851;51.166;4.760;2024-01-15T03:17:21;1.60;99.90
27384;DHT22;14851;51.166;4.760;2024-01-15T03:19:47;1.60;99.90
27384;DHT22;14851;51.166;4.760;2024-01-15T03:22:16;1.60;99.90
27384;DHT22;14851;51.166;4.760;2024-01-15T03:24:43;1.60;99.90
27384;DHT22;14851;51.166;4.760;2024-01-15T03:27:09;1.60;99.90
27384;DHT22;14851;51.166;4.760;2024-01-15T03:29:35;1.60;99.90
27384;DHT22;14851;51.166;4.760;2024-01-15T03:32:02;1.70;99.90
27384;DHT22;14851;51.166;4.760;2024-01-15T03:34:28;1.60;99.90
27384;DHT22;14851;51.166;4.760;2024-01-15T03:36:55;1.70;99.90
27384;DHT22;14851;51.166;4.760;2024-01-15T03:39:21;1.70;99.90
27384;DHT22;14851;51.166;4.760;2024-01-15T03:41:49;1.70;99.90
27384;DHT22;14851;51.166;4.760;2024-01-15T03:44:15;1.70;99.90
27384;DHT22;14851;51.166;4.760;2024-01-15T03:46:41;1.70;99.90
27384;DHT22;14851;51.166;4.760;2024-01-15T03:49:08;1.70;99.90
27384;DHT22;14851;51.166;4.760;2024-01-15T03:51:34;1.70;99.90
27384;DHT22;14851;51.166;4.760;2024-01-15T03:54:00;1.70;99.90
27384;DHT22;14851;51.166;4.760;2024-01-15T03:56:29;1.60;99.90
27384;DHT22;14851;51.166;4.760;2024-01-15T03:58:55;1.60;99.90
27384;DHT22;14851;51.166;4.760;2024-01-15T04:01:22;1.60;99.90
27384;DHT22;14851;51.166;4.760;2024-01-15T04:03:48;1.60;99.90
27384;DHT22;14851;51.166;4.760;2024-01-15T04:06:16;1.60;99.90
27384;DHT22;14851;51.166;4.760;2024-01-15T04:08:43;1.60;99.90
27384;DHT22;14851;51.166;4.760;2024-01-15T04:11:12;1.60;99.90
27384;DHT22;14851;51.166;4.760;2024-01-15T04:13:39;1.60;99.90
27384;DHT22;14851;51.166;4.760;2024-01-15T04:16:05;1.60;99.90
27384;DHT22;14851;51.166;4.760;2024-01-15T04:18:31;1.60;99.90
27384;DHT22;14851;51.166;4.760;2024-01-15T04:21:00;1.60;99.90
27384;DHT22;14851;51.166;4.760;2024-01-15T04:23:26;1.60;99.90
27384;DHT22;14851;51.166;4.760;2024-01-15T04:25:52;1.50;99.90
27384;DHT22;14851;51.166;4.760;2024-01-15T04:28:19;1.60;99.90
27384;DHT22;14851;51.166;4.760;2024-01-15T04:30:45;1.60;99.90
27384;DHT22;14851;51.166;4.760;2024-01-15T04:33:11;1.60;99.90
27384;DHT22;14851;51.166;4.760;2024-01-15T04:35:37;1.60;99.90
27384;DHT22;14851;51.166;4.760;2024-01-15T04:38:04;1.60;99.90
27384;DHT22;14851;51.166;4.760;2024-01-15T04:40:30;1.60;99.90
27384;DHT22;14851;51.166;4.760;2024-01-15T04:42:56;1.60;99.90
27384;DHT22;14851;51.166;4.760;2024-01-15T04:45:22;1.60;99.90
27384;DHT22;14851;51.166;4.760;2024-01-15T04:47:54;1.60;99.90
27384;DHT22;14851;51.166;4.760;2024-01-15T04:50:22;1.60;99.90
27384;DHT22;14851;51.166;4.760;2024-01-15T04:52:49;1.60;99.90
27384;DHT22;14851;51.166;4.760;2024-01-15T04:55:15;1.60;99.90
27384;DHT22;14851;51.166;4.760;2024-01-15T04:57:41;1.60;99.90
27384;DHT22;14851;51.166;4.760;2024-01-15T05:00:08;1.60;99.90
27384;DHT22;14851;51.166;4.760;2024-01-15T05:02:35;1.70;99.90
27384;DHT22;14851;51.166;4.760;2024-01-15T05:05:03;1.70;99.90
27384;DHT22;14851;51.166;4.760;2024-01-15T05:07:34;1.70;99.90
27384;DHT22;14851;51.166;4.760;2024-01-15T05:10:00;1.70;99.90
27384;DHT22;14851;51.166;4.760;2024-01-15T05:12:29;1.70;99.90
27384;DHT22;14851;51.166;4.760;2024-01-15T05:14:55;1.70;99.90
27384;DHT22;14851;51.166;4.760;2024-01-15T05:17:21;1.70;99.90
27384;DHT22;14851;51.166;4.760;2024-01-15T05:19:47;1.80;99.90
27384;DHT22;14851;51.166;4.760;2024-01-15T05:22:14;1.70;99.90
27384;DHT22;14851;51.166;4.760;2024-01-15T05:24:40;1.70;99.90
27384;DHT22;14851;51.166;4.760;2024-01-15T05:27:06;1.70;99.90
27384;DHT22;14851;51.166;4.760;2024-01-15T05:29:32;1.70;99.90
27384;DHT22;14851;51.166;4.760;2024-01-15T05:31:58;1.70;99.90
27384;DHT22;14851;51.166;4.760;2024-01-15T05:34:25;1.70;99.90
27384;DHT22;14851;51.166;4.760;2024-01-15T05:36:51;1.70;99.90
27384;DHT22;14851;51.166;4.760;2024-01-15T05:39:18;1.70;99.90
27384;DHT22;14851;51.166;4.760;2024-01-15T05:41:44;1.70;99.90
27384;DHT22;14851;51.166;4.760;2024-01-15T05:44:10;1.70;99.90
27384;DHT22;14851;51.166;4.760;2024-01-15T05:46:36;1.80;99.90
27384;DHT22;14851;51.166;4.760;2024-01-15T05:49:02;1.80;99.90
27384;DHT22;14851;51.166;4.760;2024-01-15T05:51:28;1.80;99.90
27384;DHT22;14851;51.166;4.760;2024-01-15T05:53:54;1.80;99.90
27384;DHT22;14851;51.166;4.760;2024-01-15T05:56:20;1.80;99.90
27384;DHT22;14851;51.166;4.760;2024-01-15T05:58:46;1.80;99.90
27384;DHT22;14851;51.166;4.760;2024-01-15T06:01:13;1.70;99.90
27384;DHT22;14851;51.166;4.760;2024-01-15T06:03:39;1.70;99.90
27384;DHT22;14851;51.166;4.760;2024-01-15T06:06:05;1.70;99.90
27384;DHT22;14851;51.166;4.760;2024-01-15T06:08:35;1.70;99.90
27384;DHT22;14851;51.166;4.760;2024-01-15T06:11:01;1.70;99.90
27384;DHT22;14851;51.166;4.760;2024-01-15T06:13:31;1.70;99.90
27384;DHT22;14851;51.166;4.760;2024-01-15T06:16:00;1.70;99.90
27384;DHT22;14851;51.166;4.760;2024-01-15T06:18:26;1.70;99.90
27384;DHT22;14851;51.166;4.760;2024-01-15T06:20:53;1.70;99.90
27384;DHT22;14851;51.166;4.760;2024-01-15T06:23:19;1.70;99.90
27384;DHT22;14851;51.166;4.760;2024-01-15T06:25:48;1.70;99.90
27384;DHT22;14851;51.166;4.760;2024-01-15T06:28:14;1.70;99.90
27384;DHT22;14851;51.166;4.760;2024-01-15T06:30:39;1.70;99.90
27384;DHT22;14851;51.166;4.760;2024-01-15T06:33:09;1.70;99.90
27384;DHT22;14851;51.166;4.760;2024-01-15T06:35:35;1.70;99.90
27384;DHT22;14851;51.166;4.760;2024-01-15T06:38:01;1.70;99.90
27384;DHT22;14851;51.166;4.760;2024-01-15T06:40:28;1.70;99.90
27384;DHT22;14851;51.166;4.760;2024-01-15T06:42:54;1.70;99.90
27384;DHT22;14851;51.166;4.760;2024-01-15T06:45:19;1.70;99.90
27384;DHT22;14851;51.166;4.760;2024-01-15T06:47:46;1.70;99.90
27384;DHT22;14851;51.166;4.760;2024-01-15T06:50:14;1.70;99.90
27384;DHT22;14851;51.166;4.760;2024-01-15T06:52:43;1.80;99.90
27384;DHT22;14851;51.166;4.760;2024-01-15T06:55:11;1.80;99.90
27384;DHT22;14851;51.166;4.760;2024-01-15T06:57:38;1.80;99.90
27384;DHT22;14851;51.166;4.760;2024-01-15T07:00:07;1.80;99.90
27384;DHT22;14851;51.166;4.760;2024-01-15T07:02:37;1.80;99.90
27384;DHT22;14851;51.166;4.760;2024-01-15T07:05:03;1.80;99.90
27384;DHT22;14851;51.166;4.760;2024-01-15T07:07:31;1.80;99.90
27384;DHT22;14851;51.166;4.760;2024-01-15T07:09:57;1.70;99.90
27384;DHT22;14851;51.166;4.760;2024-01-15T07:12:24;1.70;99.90
27384;DHT22;14851;51.166;4.760;2024-01-15T07:14:50;1.70;99.90
27384;DHT22;14851;51.166;4.760;2024-01-15T07:17:17;1.70;99.90
27384;DHT22;14851;51.166;4.760;2024-01-15T07:19:43;1.70;99.90
27384;DHT22;14851;51.166;4.760;2024-01-15T07:22:09;1.60;99.90
27384;DHT22;14851;51.166;4.760;2024-01-15T07:24:35;1.60;99.90
27384;DHT22;14851;51.166;4.760;2024-01-15T07:27:02;1.60;99.90
27384;DHT22;14851;51.166;4.760;2024-01-15T07:29:31;1.50;99.90
27384;DHT22;14851;51.166;4.760;2024-01-15T07:31:59;1.50;99.90
27384;DHT22;14851;51.166;4.760;2024-01-15T07:34:25;1.50;99.90
27384;DHT22;14851;51.166;4.760;2024-01-15T07:36:55;1.60;99.90
27384;DHT22;14851;51.166;4.760;2024-01-15T07:39:27;1.60;99.90
27384;DHT22;14851;51.166;4.760;2024-01-15T07:41:55;1.60;99.90
27384;DHT22;14851;51.166;4.760;2024-01-15T07:44:22;1.50;99.90
27384;DHT22;14851;51.166;4.760;2024-01-15T07:46:48;1.50;99.90
27384;DHT22;14851;51.166;4.760;2024-01-15T07:49:17;1.50;99.90
27384;DHT22;14851;51.166;4.760;2024-01-15T07:51:43;1.50;99.90
27384;DHT22;14851;51.166;4.760;2024-01-15T07:54:24;1.60;99.90
27384;DHT22;14851;51.166;4.760;2024-01-15T07:56:58;1.60;99.90
27384;DHT22;14851;51.166;4.760;2024-01-15T07:59:33;1.60;99.90
27384;DHT22;14851;51.166;4.760;2024-01-15T08:02:01;1.50;99.90
27384;DHT22;14851;51.166;4.760;2024-01-15T08:04:27;1.50;99.90
27384;DHT22;14851;51.166;4.760;2024-01-15T08:06:54;1.50;99.90
27384;DHT22;14851;51.166;4.760;2024-01-15T08:09:20;1.50;99.90
27384;DHT22;14851;51.166;4.760;2024-01-15T08:11:49;1.50;99.90
27384;DHT22;14851;51.166;4.760;2024-01-15T08:14:15;1.50;99.90
27384;DHT22;14851;51.166;4.760;2024-01-15T08:16:45;1.50;99.90
27384;DHT22;14851;51.166;4.760;2024-01-15T08:19:14;1.50;99.90
27384;DHT22;14851;51.166;4.760;2024-01-15T08:25:10;1.60;99.90
27384;DHT22;14851;51.166;4.760;2024-01-15T08:27:42;1.60;99.90
27384;DHT22;14851;51.166;4.760;2024-01-15T08:30:10;1.60;99.90
27384;DHT22;14851;51.166;4.760;2024-01-15T08:32:36;1.60;99.90
27384;DHT22;14851;51.166;4.760;2024-01-15T08:35:10;1.60;99.90
27384;DHT22;14851;51.166;4.760;2024-01-15T08:37:38;1.60;99.90
27384;DHT22;14851;51.166;4.760;2024-01-15T08:40:14;1.60;99.90
27384;DHT22;14851;51.166;4.760;2024-01-15T08:42:42;1.60;99.90
27384;DHT22;14851;51.166;4.760;2024-01-15T08:45:09;1.60;99.90
27384;DHT22;14851;51.166;4.760;2024-01-15T08:47:35;1.60;99.90
27384;DHT22;14851;51.166;4.760;2024-01-15T08:50:02;1.60;99.90
27384;DHT22;14851;51.166;4.760;2024-01-15T08:52:33;1.70;99.90
27384;DHT22;14851;51.166;4.760;2024-01-15T08:55:05;1.70;99.90
27384;DHT22;14851;51.166;4.760;2024-01-15T08:57:34;1.60;99.90
27384;DHT22;14851;51.166;4.760;2024-01-15T09:00:22;1.70;99.90
27384;DHT22;14851;51.166;4.760;2024-01-15T09:03:45;1.70;99.90
27384;DHT22;14851;51.166;4.760;2024-01-15T09:06:32;1.70;99.90
27384;DHT22;14851;51.166;4.760;2024-01-15T09:09:30;1.70;99.90
27384;DHT22;14851;51.166;4.760;2024-01-15T09:12:05;1.80;99.90
27384;DHT22;14851;51.166;4.760;2024-01-15T09:14:31;1.80;99.90
27384;DHT22;14851;51.166;4.760;2024-01-15T09:17:01;1.80;99.90
27384;DHT22;14851;51.166;4.760;2024-01-15T09:19:31;1.80;99.90
27384;DHT22;14851;51.166;4.760;2024-01-15T09:22:06;1.80;99.90
27384;DHT22;14851;51.166;4.760;2024-01-15T09:24:32;1.80;99.90
27384;DHT22;14851;51.166;4.760;2024-01-15T09:26:59;1.80;99.90
27384;DHT22;14851;51.166;4.760;2024-01-15T09:29:25;1.80;99.90
27384;DHT22;14851;51.166;4.760;2024-01-15T09:31:51;1.80;99.90
27384;DHT22;14851;51.166;4.760;2024-01-15T09:34:17;1.80;99.90
27384;DHT22;14851;51.166;4.760;2024-01-15T09:36:43;1.80;99.90
27384;DHT22;14851;51.166;4.760;2024-01-15T09:39:12;1.90;99.90
27384;DHT22;14851;51.166;4.760;2024-01-15T09:41:39;1.80;99.90
27384;DHT22;14851;51.166;4.760;2024-01-15T09:44:06;1.80;99.90
27384;DHT22;14851;51.166;4.760;2024-01-15T09:46:35;1.80;99.90
27384;DHT22;14851;51.166;4.760;2024-01-15T09:49:04;1.80;99.90
27384;DHT22;14851;51.166;4.760;2024-01-15T09:51:32;2.00;99.90
27384;DHT22;14851;51.166;4.760;2024-01-15T09:54:00;2.00;99.90
27384;DHT22;14851;51.166;4.760;2024-01-15T09:56:27;2.20;99.90
27384;DHT22;14851;51.166;4.760;2024-01-15T09:59:01;2.30;99.90
27384;DHT22;14851;51.166;4.760;2024-01-15T10:01:28;2.30;99.90
27384;DHT22;14851;51.166;4.760;2024-01-15T10:03:54;2.30;99.90
27384;DHT22;14851;51.166;4.760;2024-01-15T10:06:23;2.30;99.90
27384;DHT22;14851;51.166;4.760;2024-01-15T10:08:50;2.40;99.90
27384;DHT22;14851;51.166;4.760;2024-01-15T10:11:17;2.30;99.90
27384;DHT22;14851;51.166;4.760;2024-01-15T10:13:49;2.40;99.90
27384;DHT22;14851;51.166;4.760;2024-01-15T10:16:24;2.50;99.90
27384;DHT22;14851;51.166;4.760;2024-01-15T10:18:51;2.60;99.90
27384;DHT22;14851;51.166;4.760;2024-01-15T10:21:17;2.60;99.90
27384;DHT22;14851;51.166;4.760;2024-01-15T10:23:43;2.80;99.90
27384;DHT22;14851;51.166;4.760;2024-01-15T10:26:13;2.90;99.90
27384;DHT22;14851;51.166;4.760;2024-01-15T10:28:38;2.90;99.90
27384;DHT22;14851;51.166;4.760;2024-01-15T10:31:05;2.90;99.90
27384;DHT22;14851;51.166;4.760;2024-01-15T10:33:31;2.80;99.90
27384;DHT22;14851;51.166;4.760;2024-01-15T10:35:58;2.70;99.90
27384;DHT22;14851;51.166;4.760;2024-01-15T10:38:27;2.60;99.90
27384;DHT22;14851;51.166;4.760;2024-01-15T10:40:55;2.50;99.90
27384;DHT22;14851;51.166;4.760;2024-01-15T10:43:23;2.50;99.90
27384;DHT22;14851;51.166;4.760;2024-01-15T10:45:50;2.40;99.90
27384;DHT22;14851;51.166;4.760;2024-01-15T10:48:18;2.30;99.90
27384;DHT22;14851;51.166;4.760;2024-01-15T10:50:46;2.20;99.90
27384;DHT22;14851;51.166;4.760;2024-01-15T10:53:15;2.10;99.90
27384;DHT22;14851;51.166;4.760;2024-01-15T10:55:42;2.00;99.90
27384;DHT22;14851;51.166;4.760;2024-01-15T10:58:09;2.00;99.90
27384;DHT22;14851;51.166;4.760;2024-01-15T11:00:36;2.10;99.90
27384;DHT22;14851;51.166;4.760;2024-01-15T11:03:06;2.10;99.90
27384;DHT22;14851;51.166;4.760;2024-01-15T11:05:46;2.10;99.90
27384;DHT22;14851;51.166;4.760;2024-01-15T11:08:13;2.20;99.90
27384;DHT22;14851;51.166;4.760;2024-01-15T11:10:51;2.20;99.90
27384;DHT22;14851;51.166;4.760;2024-01-15T11:16:14;2.20;99.90
27384;DHT22;14851;51.166;4.760;2024-01-15T11:18:42;2.20;99.90
27384;DHT22;14851;51.166;4.760;2024-01-15T11:23:53;2.00;99.90
27384;DHT22;14851;51.166;4.760;2024-01-15T11:26:44;1.90;99.90
27384;DHT22;14851;51.166;4.760;2024-01-15T11:29:33;1.90;99.90
27384;DHT22;14851;51.166;4.760;2024-01-15T11:32:09;2.00;99.90
27384;DHT22;14851;51.166;4.760;2024-01-15T11:34:55;2.00;99.90
27384;DHT22;14851;51.166;4.760;2024-01-15T11:37:26;2.10;99.90
27384;DHT22;14851;51.166;4.760;2024-01-15T11:40:03;2.00;99.90
27384;DHT22;14851;51.166;4.760;2024-01-15T11:42:32;1.90;99.90
27384;DHT22;14851;51.166;4.760;2024-01-15T11:45:00;1.90;99.90
27384;DHT22;14851;51.166;4.760;2024-01-15T11:48:08;1.80;99.90
27384;DHT22;14851;51.166;4.760;2024-01-15T11:50:36;1.90;99.90
27384;DHT22;14851;51.166;4.760;2024-01-15T11:53:27;2.00;99.90
27384;DHT22;14851;51.166;4.760;2024-01-15T11:55:58;2.00;99.90
27384;DHT22;14851;51.166;4.760;2024-01-15T11:58:30;2.00;99.90
27384;DHT22;14851;51.166;4.760;2024-01-15T12:00:58;2.00;99.90
27384;DHT22;14851;51.166;4.760;2024-01-15T12:03:25;2.10;99.90
27384;DHT22;14851;51.166;4.760;2024-01-15T12:05:54;2.10;99.90
27384;DHT22;14851;51.166;4.760;2024-01-15T12:08:23;2.10;99.90
27384;DHT22;14851;51.166;4.760;2024-01-15T12:10:53;2.10;99.90
27384;DHT22;14851;51.166;4.760;2024-01-15T12:13:20;2.10;99.90
27384;DHT22;14851;51.166;4.760;2024-01-15T12:15:54;2.20;99.90
27384;DHT22;14851;51.166;4.760;2024-01-15T12:18:20;2.20;99.90
27384;DHT22;14851;51.166;4.760;2024-01-15T12:20:49;2.20;99.90
27384;DHT22;14851;51.166;4.760;2024-01-15T12:23:15;2.10;99.90
27384;DHT22;14851;51.166;4.760;2024-01-15T12:25:45;2.00;99.90
27384;DHT22;14851;51.166;4.760;2024-01-15T12:28:15;2.00;99.90
27384;DHT22;14851;51.166;4.760;2024-01-15T12:30:45;2.00;99.90
27384;DHT22;14851;51.166;4.760;2024-01-15T12:33:19;2.00;99.90
27384;DHT22;14851;51.166;4.760;2024-01-15T12:35:47;2.00;99.90
27384;DHT22;14851;51.166;4.760;2024-01-15T12:38:19;1.90;99.90
27384;DHT22;14851;51.166;4.760;2024-01-15T12:40:50;1.90;99.90
27384;DHT22;14851;51.166;4.760;2024-01-15T12:43:17;1.90;99.90
27384;DHT22;14851;51.166;4.760;2024-01-15T12:45:46;1.90;99.90
27384;DHT22;14851;51.166;4.760;2024-01-15T12:48:14;2.00;99.90
27384;DHT22;14851;51.166;4.760;2024-01-15T12:50:43;2.00;99.90
27384;DHT22;14851;51.166;4.760;2024-01-15T12:53:12;2.10;99.90
27384;DHT22;14851;51.166;4.760;2024-01-15T12:55:38;2.10;99.90
27384;DHT22;14851;51.166;4.760;2024-01-15T12:58:03;2.10;99.90
27384;DHT22;14851;51.166;4.760;2024-01-15T13:00:32;2.10;99.90
27384;DHT22;14851;51.166;4.760;2024-01-15T13:03:02;2.00;99.90
27384;DHT22;14851;51.166;4.760;2024-01-15T13:05:34;2.10;99.90
27384;DHT22;14851;51.166;4.760;2024-01-15T13:08:02;2.10;99.90
27384;DHT22;14851;51.166;4.760;2024-01-15T13:10:29;2.10;99.90
27384;DHT22;14851;51.166;4.760;2024-01-15T13:12:56;2.00;99.90
27384;DHT22;14851;51.166;4.760;2024-01-15T13:15:21;2.00;99.90
27384;DHT22;14851;51.166;4.760;2024-01-15T13:17:48;2.00;99.90
27384;DHT22;14851;51.166;4.760;2024-01-15T13:20:14;2.10;99.90
27384;DHT22;14851;51.166;4.760;2024-01-15T13:22:40;2.10;99.90
27384;DHT22;14851;51.166;4.760;2024-01-15T13:25:10;2.10;99.90
27384;DHT22;14851;51.166;4.760;2024-01-15T13:27:40;2.10;99.90
27384;DHT22;14851;51.166;4.760;2024-01-15T13:30:07;2.10;99.90
27384;DHT22;14851;51.166;4.760;2024-01-15T13:32:33;2.10;99.90
27384;DHT22;14851;51.166;4.760;2024-01-15T13:35:01;2.00;99.90
27384;DHT22;14851;51.166;4.760;2024-01-15T13:37:29;2.10;99.90
27384;DHT22;14851;51.166;4.760;2024-01-15T13:39:55;2.10;99.90
27384;DHT22;14851;51.166;4.760;2024-01-15T13:42:26;2.20;99.90
27384;DHT22;14851;51.166;4.760;2024-01-15T13:44:53;2.20;99.90
27384;DHT22;14851;51.166;4.760;2024-01-15T13:47:21;2.20;99.90
27384;DHT22;14851;51.166;4.760;2024-01-15T13:49:49;2.30;99.90
27384;DHT22;14851;51.166;4.760;2024-01-15T13:52:16;2.30;99.90
27384;DHT22;14851;51.166;4.760;2024-01-15T13:54:43;2.30;99.90
27384;DHT22;14851;51.166;4.760;2024-01-15T13:57:11;2.30;99.90
27384;DHT22;14851;51.166;4.760;2024-01-15T13:59:40;2.40;99.90
27384;DHT22;14851;51.166;4.760;2024-01-15T14:02:06;2.30;99.90
27384;DHT22;14851;51.166;4.760;2024-01-15T14:04:34;2.40;99.90
27384;DHT22;14851;51.166;4.760;2024-01-15T14:07:00;2.40;99.90
27384;DHT22;14851;51.166;4.760;2024-01-15T14:09:30;2.40;99.90
27384;DHT22;14851;51.166;4.760;2024-01-15T14:11:57;2.40;99.90
27384;DHT22;14851;51.166;4.760;2024-01-15T14:14:25;2.40;99.90
27384;DHT22;14851;51.166;4.760;2024-01-15T14:16:56;2.40;99.90
27384;DHT22;14851;51.166;4.760;2024-01-15T14:19:22;2.40;99.90
27384;DHT22;14851;51.166;4.760;2024-01-15T14:21:48;2.30;99.90
27384;DHT22;14851;51.166;4.760;2024-01-15T14:24:14;2.20;99.90
27384;DHT22;14851;51.166;4.760;2024-01-15T14:26:41;2.20;99.90
27384;DHT22;14851;51.166;4.760;2024-01-15T14:29:07;2.10;99.90
27384;DHT22;14851;51.166;4.760;2024-01-15T14:31:33;2.10;99.90
27384;DHT22;14851;51.166;4.760;2024-01-15T14:33:59;2.00;99.90
27384;DHT22;14851;51.166;4.760;2024-01-15T14:36:25;2.00;99.90
27384;DHT22;14851;51.166;4.760;2024-01-15T14:38:51;2.00;99.90
27384;DHT22;14851;51.166;4.760;2024-01-15T14:41:18;2.00;99.90
27384;DHT22;14851;51.166;4.760;2024-01-15T14:43:44;1.90;99.90
27384;DHT22;14851;51.166;4.760;2024-01-15T14:46:12;1.90;99.90
27384;DHT22;14851;51.166;4.760;2024-01-15T14:48:39;1.90;99.90
27384;DHT22;14851;51.166;4.760;2024-01-15T14:51:05;2.00;99.90
27384;DHT22;14851;51.166;4.760;2024-01-15T14:53:32;1.90;99.90
27384;DHT22;14851;51.166;4.760;2024-01-15T14:55:58;1.90;99.90
27384;DHT22;14851;51.166;4.760;2024-01-15T14:58:24;1.90;99.90
27384;DHT22;14851;51.166;4.760;2024-01-15T15:00:49;1.90;99.90
27384;DHT22;14851;51.166;4.760;2024-01-15T15:03:21;1.90;99.90
27384;DHT22;14851;51.166;4.760;2024-01-15T15:05:47;1.90;99.90
27384;DHT22;14851;51.166;4.760;2024-01-15T15:08:14;1.90;99.90
27384;DHT22;14851;51.166;4.760;2024-01-15T15:10:40;1.90;99.90
27384;DHT22;14851;51.166;4.760;2024-01-15T15:13:08;2.00;99.90
27384;DHT22;14851;51.166;4.760;2024-01-15T15:15:37;2.00;99.90
27384;DHT22;14851;51.166;4.760;2024-01-15T15:18:07;2.00;99.90
27384;DHT22;14851;51.166;4.760;2024-01-15T15:20:33;1.90;99.90
27384;DHT22;14851;51.166;4.760;2024-01-15T15:22:59;1.80;99.90
27384;DHT22;14851;51.166;4.760;2024-01-15T15:25:25;1.80;99.90
27384;DHT22;14851;51.166;4.760;2024-01-15T15:27:55;1.80;99.90
27384;DHT22;14851;51.166;4.760;2024-01-15T15:30:21;1.80;99.90
27384;DHT22;14851;51.166;4.760;2024-01-15T15:32:47;1.80;99.90
27384;DHT22;14851;51.166;4.760;2024-01-15T15:35:13;1.80;99.90
27384;DHT22;14851;51.166;4.760;2024-01-15T15:37:39;1.80;99.90
27384;DHT22;14851;51.166;4.760;2024-01-15T15:40:08;1.80;99.90
27384;DHT22;14851;51.166;4.760;2024-01-15T15:42:38;1.80;99.90
27384;DHT22;14851;51.166;4.760;2024-01-15T15:45:05;1.70;99.90
27384;DHT22;14851;51.166;4.760;2024-01-15T15:47:33;1.70;99.90
27384;DHT22;14851;51.166;4.760;2024-01-15T15:50:02;1.60;99.90
27384;DHT22;14851;51.166;4.760;2024-01-15T15:52:33;1.60;99.90
27384;DHT22;14851;51.166;4.760;2024-01-15T15:55:00;1.60;99.90
27384;DHT22;14851;51.166;4.760;2024-01-15T15:57:28;1.60;99.90
27384;DHT22;14851;51.166;4.760;2024-01-15T15:59:56;1.60;99.90